createdAt,value
2018-09-23T00:00:32.819Z,74.90
2018-09-23T00:03:37.087Z,74.90
2018-09-23T00:06:41.243Z,74.90
2018-09-23T00:09:45.560Z,75.00
2018-09-23T00:12:49.862Z,75.30
2018-09-23T00:15:54.276Z,75.10
2018-09-23T00:18:58.491Z,75.20
2018-09-23T00:22:02.634Z,75.20
2018-09-23T00:25:06.959Z,75.20
2018-09-23T00:28:11.305Z,74.90
2018-09-23T00:31:15.606Z,74.90
2018-09-23T00:34:19.840Z,74.90
2018-09-23T00:37:24.084Z,74.50
2018-09-23T00:40:28.303Z,74.70
2018-09-23T00:43:32.691Z,74.90
2018-09-23T00:46:37.137Z,74.90
2018-09-23T00:49:41.507Z,74.90
2018-09-23T00:52:45.769Z,74.90
2018-09-23T00:55:49.965Z,75.00
2018-09-23T00:58:54.173Z,74.80
2018-09-23T01:01:58.598Z,74.90
2018-09-23T01:05:03.070Z,75.10
2018-09-23T01:08:07.476Z,75.00
2018-09-23T01:11:11.785Z,74.90
2018-09-23T01:14:16.149Z,75.40
2018-09-23T01:17:20.551Z,75.50
2018-09-23T01:20:25.092Z,75.30
2018-09-23T01:23:29.384Z,75.20
2018-09-23T01:26:33.775Z,75.00
2018-09-23T01:29:37.907Z,74.80
2018-09-23T01:32:42.035Z,75.00
2018-09-23T01:35:46.378Z,75.00
2018-09-23T01:38:50.804Z,74.70
2018-09-23T01:41:55.015Z,75.00
2018-09-23T01:44:59.477Z,74.70
2018-09-23T01:48:03.778Z,74.60
2018-09-23T01:51:07.702Z,74.80
2018-09-23T01:54:12.026Z,74.60
2018-09-23T01:57:16.351Z,74.60
2018-09-23T02:00:20.657Z,74.60
2018-09-23T02:03:24.991Z,74.60
2018-09-23T02:06:29.320Z,74.60
2018-09-23T02:09:33.647Z,75.00
2018-09-23T02:12:37.820Z,75.40
2018-09-23T02:15:42.330Z,75.30
2018-09-23T02:18:46.596Z,75.00
2018-09-23T02:21:50.796Z,74.90
2018-09-23T02:24:55.079Z,74.60
2018-09-23T02:27:59.365Z,74.70
2018-09-23T02:31:03.579Z,75.50
2018-09-23T02:34:07.991Z,75.20
2018-09-23T02:37:12.188Z,75.20
2018-09-23T02:40:16.292Z,75.10
2018-09-23T02:43:20.425Z,75.00
2018-09-23T02:46:24.669Z,75.30
2018-09-23T02:49:29.005Z,75.30
2018-09-23T02:52:33.431Z,75.10
2018-09-23T02:55:37.871Z,75.10
2018-09-23T02:58:41.963Z,75.20
2018-09-23T03:01:46.145Z,75.40
2018-09-23T03:04:50.501Z,75.30
2018-09-23T03:07:54.913Z,75.70
2018-09-23T03:10:59.060Z,75.70
2018-09-23T03:14:03.243Z,76.40
2018-09-23T03:17:07.544Z,77.50
2018-09-23T03:20:11.676Z,78.20
2018-09-23T03:23:16.031Z,78.60
2018-09-23T03:26:20.358Z,78.70
2018-09-23T03:29:24.658Z,79.20
2018-09-23T03:32:28.984Z,79.50
2018-09-23T03:35:33.309Z,79.50
2018-09-23T03:38:37.747Z,79.40
2018-09-23T03:41:41.957Z,80.40
2018-09-23T03:44:47.150Z,80.50
2018-09-23T03:47:51.541Z,80.80
2018-09-23T03:50:55.934Z,80.70
2018-09-23T03:54:00.523Z,80.80
2018-09-23T03:57:04.678Z,81.10
2018-09-23T04:00:08.847Z,80.80
2018-09-23T04:03:13.190Z,81.10
2018-09-23T04:06:17.479Z,81.00
2018-09-23T04:09:22.154Z,81.20
2018-09-23T04:12:26.384Z,81.30
2018-09-23T04:15:30.716Z,81.70
2018-09-23T04:18:35.310Z,81.60
2018-09-23T04:21:39.694Z,81.30
2018-09-23T04:24:43.914Z,80.80
2018-09-23T04:27:48.648Z,80.70
2018-09-23T04:30:53.075Z,81.40
2018-09-23T04:33:57.411Z,81.30
2018-09-23T04:37:01.710Z,81.30
2018-09-23T04:40:06.001Z,81.20
2018-09-23T04:43:11.155Z,81.20
2018-09-23T04:46:15.532Z,80.80
2018-09-23T04:49:19.857Z,81.00
2018-09-23T04:52:24.144Z,81.00
2018-09-23T04:55:28.512Z,80.40
2018-09-23T04:58:32.797Z,80.30
2018-09-23T05:01:37.117Z,80.20
2018-09-23T05:04:41.524Z,80.30
2018-09-23T05:07:45.982Z,80.20
2018-09-23T05:10:50.293Z,80.40
2018-09-23T05:13:54.721Z,81.00
2018-09-23T05:16:59.073Z,80.40
2018-09-23T05:20:03.510Z,80.60
2018-09-23T05:23:07.949Z,80.80
2018-09-23T05:26:12.309Z,79.70
2018-09-23T05:29:16.660Z,79.80
2018-09-23T05:32:20.982Z,79.80
2018-09-23T05:35:25.193Z,79.90
2018-09-23T05:38:29.453Z,80.20
2018-09-23T05:41:33.571Z,79.90
2018-09-23T05:44:37.913Z,80.50
2018-09-23T05:47:42.242Z,79.90
2018-09-23T05:50:46.578Z,79.70
2018-09-23T05:53:50.865Z,78.80
2018-09-23T05:56:55.206Z,78.60
2018-09-23T06:00:00.113Z,78.40
2018-09-23T06:03:04.249Z,78.20
2018-09-23T06:06:08.729Z,78.10
2018-09-23T06:09:13.038Z,78.20
2018-09-23T06:12:17.406Z,77.70
2018-09-23T06:15:21.651Z,77.70
2018-09-23T06:18:26.042Z,77.40
2018-09-23T06:21:30.358Z,77.10
2018-09-23T06:24:34.621Z,77.00
2018-09-23T06:27:38.811Z,77.20
2018-09-23T06:30:43.068Z,77.20
2018-09-23T06:33:47.261Z,76.10
2018-09-23T06:36:51.640Z,75.60
2018-09-23T06:39:55.904Z,74.80
2018-09-23T06:43:00.130Z,75.50
2018-09-23T06:46:04.362Z,74.20
2018-09-23T06:49:08.575Z,74.50
2018-09-23T06:52:12.901Z,73.50
2018-09-23T06:55:17.207Z,73.00
2018-09-23T06:58:21.335Z,72.50
2018-09-23T07:01:25.655Z,72.20
2018-09-23T07:04:29.922Z,71.90
2018-09-23T07:07:34.198Z,71.90
2018-09-23T07:10:38.779Z,70.80
2018-09-23T07:13:43.090Z,71.00
2018-09-23T07:16:47.608Z,71.80
2018-09-23T07:19:51.834Z,71.70
2018-09-23T07:22:56.099Z,71.00
2018-09-23T07:26:00.352Z,70.70
2018-09-23T07:29:04.708Z,70.10
2018-09-23T07:32:09.153Z,68.40
2018-09-23T07:35:13.437Z,65.50
2018-09-23T07:38:17.701Z,66.10
2018-09-23T07:41:21.842Z,65.80
2018-09-23T07:44:26.167Z,65.60
2018-09-23T07:47:30.474Z,65.30
2018-09-23T07:50:34.779Z,64.20
2018-09-23T07:53:39.030Z,63.60
2018-09-23T07:56:43.178Z,64.10
2018-09-23T07:59:48.051Z,62.50
2018-09-23T08:02:52.292Z,62.80
2018-09-23T08:05:56.455Z,63.50
2018-09-23T08:09:00.649Z,62.60
2018-09-23T08:12:05.061Z,63.10
2018-09-23T08:15:09.118Z,63.60
2018-09-23T08:18:13.308Z,63.50
2018-09-23T08:21:17.696Z,63.60
2018-09-23T08:24:21.974Z,63.60
2018-09-23T08:27:26.317Z,63.40
2018-09-23T08:30:30.647Z,61.30
2018-09-23T08:33:35.117Z,59.70
2018-09-23T08:36:39.395Z,59.90
2018-09-23T08:39:43.808Z,59.80
2018-09-23T08:42:48.315Z,59.80
2018-09-23T08:45:52.853Z,60.00
2018-09-23T08:48:57.283Z,60.40
2018-09-23T08:52:01.667Z,60.40
2018-09-23T08:55:05.843Z,59.70
2018-09-23T08:58:10.314Z,59.60
2018-09-23T09:01:14.818Z,60.50
2018-09-23T09:04:19.329Z,61.60
2018-09-23T09:07:24.600Z,62.40
2018-09-23T09:10:28.796Z,63.20
2018-09-23T09:13:33.334Z,62.60
2018-09-23T09:16:37.554Z,62.20
2018-09-23T09:19:41.871Z,61.20
2018-09-23T09:22:46.059Z,61.30
2018-09-23T09:25:50.235Z,61.10
2018-09-23T09:28:54.500Z,60.20
2018-09-23T09:31:58.712Z,60.30
2018-09-23T09:35:03.027Z,60.10
2018-09-23T09:38:07.345Z,60.00
2018-09-23T09:41:11.659Z,59.70
2018-09-23T09:44:16.181Z,60.00
2018-09-23T09:47:20.608Z,59.70
2018-09-23T09:50:25.599Z,59.80
2018-09-23T09:53:29.795Z,59.00
2018-09-23T09:56:34.149Z,57.80
2018-09-23T09:59:38.304Z,56.30
2018-09-23T10:02:42.514Z,54.10
2018-09-23T10:05:47.003Z,51.90
2018-09-23T10:08:51.308Z,51.80
2018-09-23T10:11:55.844Z,48.20
2018-09-23T10:15:00.326Z,46.00
2018-09-23T10:18:04.614Z,44.80
2018-09-23T10:21:08.779Z,44.40
2018-09-23T10:24:13.009Z,43.90
2018-09-23T10:27:17.302Z,42.50
2018-09-23T10:30:21.765Z,41.70
2018-09-23T10:33:25.881Z,40.30
2018-09-23T10:36:30.090Z,41.60
2018-09-23T10:39:34.414Z,43.40
2018-09-23T10:42:38.730Z,41.90
2018-09-23T10:45:43.290Z,39.30
2018-09-23T10:48:47.615Z,33.40
2018-09-23T10:51:52.070Z,30.70
2018-09-23T10:54:56.322Z,27.80
2018-09-23T10:58:00.698Z,27.00
2018-09-23T11:01:05.296Z,28.40
2018-09-23T11:04:10.192Z,28.60
2018-09-23T11:07:15.204Z,29.20
2018-09-23T11:10:19.479Z,28.70
2018-09-23T11:13:23.752Z,26.40
2018-09-23T11:16:27.954Z,24.80
2018-09-23T11:19:32.336Z,23.90
2018-09-23T11:22:36.735Z,22.80
2018-09-23T11:25:41.082Z,21.90
2018-09-23T11:28:45.498Z,21.00
2018-09-23T11:31:49.917Z,20.90
2018-09-23T11:34:54.299Z,20.50
2018-09-23T11:37:58.498Z,21.80
2018-09-23T11:41:02.569Z,22.80
2018-09-23T11:44:06.947Z,22.80
2018-09-23T11:47:11.414Z,22.70
2018-09-23T11:50:15.766Z,23.40
2018-09-23T11:53:20.015Z,25.40
2018-09-23T11:56:24.469Z,24.90
2018-09-23T11:59:28.675Z,24.50
2018-09-23T12:02:33.163Z,24.10
2018-09-23T12:05:37.724Z,23.40
2018-09-23T12:08:41.993Z,24.10
2018-09-23T12:11:46.557Z,23.60
2018-09-23T12:14:50.937Z,22.50
2018-09-23T12:17:55.198Z,22.20
2018-09-23T12:20:59.394Z,21.20
2018-09-23T12:24:03.636Z,21.20
2018-09-23T12:27:07.987Z,20.50
2018-09-23T12:30:12.302Z,20.40
2018-09-23T12:33:16.635Z,20.60
2018-09-23T12:36:20.846Z,21.50
2018-09-23T12:39:25.068Z,22.20
2018-09-23T12:42:29.489Z,21.60
2018-09-23T12:45:33.542Z,21.80
2018-09-23T12:48:37.779Z,21.40
2018-09-23T12:51:42.237Z,21.50
2018-09-23T12:54:46.386Z,21.60
2018-09-23T12:57:50.749Z,22.20
2018-09-23T13:00:55.146Z,23.40
2018-09-23T13:03:59.384Z,24.70
2018-09-23T13:07:03.665Z,26.00
2018-09-23T13:10:08.083Z,25.70
2018-09-23T13:13:12.385Z,25.80
2018-09-23T13:16:16.831Z,26.60
2018-09-23T13:19:21.036Z,27.70
2018-09-23T13:22:25.547Z,28.80
2018-09-23T13:25:29.835Z,31.70
2018-09-23T13:28:34.182Z,33.10
2018-09-23T13:31:38.643Z,34.30
2018-09-23T13:34:43.051Z,34.90
2018-09-23T13:37:47.364Z,35.80
2018-09-23T13:40:51.692Z,37.00
2018-09-23T13:43:56.099Z,37.40
2018-09-23T13:47:00.443Z,38.10
2018-09-23T13:50:05.007Z,38.90
2018-09-23T13:53:09.209Z,39.80
2018-09-23T13:56:13.536Z,40.20
2018-09-23T13:59:17.729Z,40.90
2018-09-23T14:02:22.187Z,40.80
2018-09-23T14:05:26.588Z,41.10
2018-09-23T14:08:30.885Z,41.70
2018-09-23T14:11:35.382Z,43.50
2018-09-23T14:14:39.711Z,44.40
2018-09-23T14:17:44.229Z,45.10
2018-09-23T14:20:48.715Z,45.60
2018-09-23T14:23:52.868Z,46.30
2018-09-23T14:26:57.265Z,47.50
2018-09-23T14:30:01.799Z,48.00
2018-09-23T14:33:06.067Z,48.70
2018-09-23T14:36:10.490Z,49.70
2018-09-23T14:39:14.982Z,50.00
2018-09-23T14:42:19.097Z,50.10
2018-09-23T14:45:23.375Z,50.30
2018-09-23T14:48:27.839Z,50.60
2018-09-23T14:51:32.176Z,50.90
2018-09-23T14:54:36.632Z,51.20
2018-09-23T14:57:40.941Z,51.50
2018-09-23T15:00:45.421Z,52.60
2018-09-23T15:03:49.851Z,53.10
2018-09-23T15:06:54.210Z,53.40
2018-09-23T15:09:58.603Z,54.00
2018-09-23T15:13:02.876Z,54.50
2018-09-23T15:16:07.229Z,54.40
2018-09-23T15:19:11.519Z,54.20
2018-09-23T15:22:15.863Z,53.80
2018-09-23T15:25:20.164Z,53.60
2018-09-23T15:28:24.502Z,53.90
2018-09-23T15:31:28.927Z,53.60
2018-09-23T15:34:33.161Z,53.60
2018-09-23T15:37:37.642Z,53.40
2018-09-23T15:40:41.943Z,53.60
2018-09-23T15:43:46.424Z,53.80
2018-09-23T15:46:50.517Z,53.90
2018-09-23T15:49:54.967Z,54.30
2018-09-23T15:52:59.304Z,54.40
2018-09-23T15:56:03.920Z,54.40
2018-09-23T15:59:08.202Z,54.70
2018-09-23T16:02:12.452Z,54.90
2018-09-23T16:05:16.817Z,55.20
2018-09-23T16:08:21.280Z,55.40
2018-09-23T16:11:25.627Z,55.60
2018-09-23T16:14:30.111Z,55.80
2018-09-23T16:17:34.454Z,55.80
2018-09-23T16:20:39.000Z,55.90
2018-09-23T16:23:43.482Z,56.70
2018-09-23T16:26:48.036Z,57.10
2018-09-23T16:29:59.041Z,57.50
2018-09-23T16:33:03.218Z,57.80
2018-09-23T16:36:06.978Z,58.10
2018-09-23T16:39:11.769Z,58.20
2018-09-23T16:42:16.192Z,58.40
2018-09-23T16:45:20.490Z,58.80
2018-09-23T16:48:24.811Z,59.20
2018-09-23T16:51:29.154Z,59.40
2018-09-23T16:54:33.475Z,59.60
2018-09-23T16:57:37.983Z,59.60
2018-09-23T17:00:42.290Z,59.50
2018-09-23T17:03:46.633Z,59.60
2018-09-23T17:06:57.074Z,59.90
2018-09-23T17:10:01.274Z,60.50
2018-09-23T17:13:05.664Z,60.90
2018-09-23T17:16:09.941Z,61.30
2018-09-23T17:19:14.275Z,61.70
2018-09-23T17:22:18.625Z,62.50
2018-09-23T17:25:22.897Z,62.60
2018-09-23T17:28:27.249Z,62.70
2018-09-23T17:31:31.494Z,63.30
2018-09-23T17:34:35.802Z,63.70
2018-09-23T17:37:40.152Z,63.90
2018-09-23T17:40:44.671Z,64.50
2018-09-23T17:43:48.980Z,64.50
2018-09-23T17:46:53.366Z,64.70
2018-09-23T17:49:57.647Z,64.90
2018-09-23T17:53:02.128Z,65.00
2018-09-23T17:56:06.740Z,65.30
2018-09-23T17:59:11.028Z,65.40
2018-09-23T18:02:15.390Z,65.60
2018-09-23T18:05:19.790Z,65.80
2018-09-23T18:08:24.178Z,65.80
2018-09-23T18:11:28.478Z,66.00
2018-09-23T18:14:32.749Z,66.10
2018-09-23T18:17:36.924Z,66.20
2018-09-23T18:20:41.104Z,66.30
2018-09-23T18:23:45.450Z,66.60
2018-09-23T18:26:49.722Z,67.00
2018-09-23T18:29:54.123Z,67.00
2018-09-23T18:32:58.386Z,67.20
2018-09-23T18:36:02.723Z,67.40
2018-09-23T18:39:08.675Z,67.50
2018-09-23T18:42:13.034Z,67.60
2018-09-23T18:45:17.317Z,67.60
2018-09-23T18:48:21.598Z,68.00
2018-09-23T18:51:25.876Z,68.20
2018-09-23T18:54:35.305Z,68.30
2018-09-23T18:57:39.677Z,68.40
2018-09-23T19:00:43.844Z,68.50
2018-09-23T19:03:48.125Z,68.70
2018-09-23T19:06:52.492Z,68.70
2018-09-23T19:09:57.743Z,69.10
2018-09-23T19:13:07.270Z,69.10
2018-09-23T19:16:16.844Z,69.30
2018-09-23T19:19:25.433Z,69.80
2018-09-23T19:22:34.948Z,69.90
2018-09-23T19:25:39.273Z,71.00
2018-09-23T19:28:43.569Z,70.30
2018-09-23T19:31:48.582Z,70.30
2018-09-23T19:34:53.332Z,70.30
2018-09-23T19:37:57.797Z,70.20
2018-09-23T19:41:02.099Z,70.20
2018-09-23T19:44:07.204Z,70.10
2018-09-23T19:47:11.502Z,70.00
2018-09-23T19:50:15.953Z,70.20
2018-09-23T19:53:20.348Z,70.30
2018-09-23T19:56:24.734Z,70.50
2018-09-23T19:59:29.216Z,70.80
2018-09-23T20:02:33.327Z,70.80
2018-09-23T20:05:37.339Z,70.70
2018-09-23T20:08:41.451Z,70.70
2018-09-23T20:11:45.825Z,70.90
2018-09-23T20:14:50.376Z,71.10
2018-09-23T20:17:54.898Z,71.30
2018-09-23T20:20:59.303Z,71.70
2018-09-23T20:24:03.613Z,71.60
2018-09-23T20:27:07.965Z,71.60
2018-09-23T20:30:12.420Z,71.50
2018-09-23T20:33:16.527Z,71.50
2018-09-23T20:36:20.477Z,71.70
2018-09-23T20:39:24.904Z,71.70
2018-09-23T20:42:29.307Z,71.70
2018-09-23T20:45:34.622Z,71.50
2018-09-23T20:48:39.077Z,71.70
2018-09-23T20:51:44.385Z,72.00
2018-09-23T20:54:48.803Z,72.10
2018-09-23T20:57:52.797Z,72.10
2018-09-23T21:00:56.676Z,72.10
2018-09-23T21:04:01.189Z,72.20
2018-09-23T21:07:05.639Z,72.10
2018-09-23T21:10:09.759Z,72.30
2018-09-23T21:13:14.141Z,72.10
2018-09-23T21:16:18.499Z,72.30
2018-09-23T21:19:22.973Z,72.30
2018-09-23T21:22:27.163Z,72.50
2018-09-23T21:25:31.451Z,72.60
2018-09-23T21:28:35.871Z,73.20
2018-09-23T21:31:40.654Z,73.40
2018-09-23T21:34:45.010Z,74.40
2018-09-23T21:37:49.851Z,76.00
2018-09-23T21:40:54.904Z,76.40
2018-09-23T21:43:59.016Z,75.70
2018-09-23T21:47:02.988Z,75.80
2018-09-23T21:50:07.307Z,76.20
2018-09-23T21:53:11.808Z,75.90
2018-09-23T21:56:16.289Z,75.90
2018-09-23T21:59:20.825Z,75.70
2018-09-23T22:02:25.183Z,76.30
2018-09-23T22:05:29.652Z,76.20
2018-09-23T22:08:33.888Z,76.90
2018-09-23T22:11:38.219Z,76.90
2018-09-23T22:14:42.653Z,77.00
2018-09-23T22:17:46.981Z,78.50
2018-09-23T22:20:51.306Z,78.70
2018-09-23T22:23:55.695Z,78.30
2018-09-23T22:27:00.327Z,77.10
2018-09-23T22:30:04.746Z,76.30
2018-09-23T22:33:08.981Z,75.70
2018-09-23T22:36:13.361Z,75.30
2018-09-23T22:39:17.881Z,75.50
2018-09-23T22:42:22.300Z,75.50
2018-09-23T22:45:26.839Z,75.40
2018-09-23T22:48:31.293Z,75.70
2018-09-23T22:51:35.662Z,75.70
2018-09-23T22:54:40.156Z,75.70
2018-09-23T22:57:44.430Z,75.30
2018-09-23T23:00:48.780Z,72.10
2018-09-23T23:03:53.065Z,70.80
2018-09-23T23:06:57.453Z,67.80
2018-09-23T23:10:01.591Z,64.30
2018-09-23T23:13:06.299Z,62.50
2018-09-23T23:16:10.617Z,62.30
2018-09-23T23:19:14.885Z,63.20
2018-09-23T23:22:19.194Z,65.10
2018-09-23T23:25:23.586Z,65.90
2018-09-23T23:28:27.921Z,62.60
2018-09-23T23:31:32.315Z,62.20
2018-09-23T23:34:36.734Z,61.10
2018-09-23T23:37:41.459Z,61.30
2018-09-23T23:40:45.331Z,61.00
2018-09-23T23:43:50.118Z,62.00
2018-09-23T23:46:53.963Z,61.40
2018-09-23T23:49:58.202Z,61.80
2018-09-23T23:53:03.448Z,61.70
2018-09-23T23:56:07.800Z,61.60
2018-09-23T23:59:12.081Z,62.50
